Time;durP1;ratioP1;P1;durP2;ratioP2;P2;SDS_P1;SDS_P2;PMS_P1;PMS_P2;Temp;Humidity;BMP_temperature;BMP_pressure;BME280_temperature;BME280_humidity;BME280_pressure;Samples;Min_cycle;Max_cycle;Signal;HPM_P1;HPM_P2
2021/07/15 00:02:04;;;;;;;5.10;1.80;;;19.40;74.40;;;;;;5077171;28;20525;-69
2021/07/15 00:04:29;;;;;;;4.30;2.15;;;19.40;74.30;;;;;;5078386;28;20025;-69
2021/07/15 00:06:55;;;;;;;4.20;1.88;;;19.40;74.30;;;;;;5090430;28;20031;-69
2021/07/15 00:09:21;;;;;;;2.78;1.80;;;19.40;74.20;;;;;;5079618;28;20028;-69
2021/07/15 00:11:48;;;;;;;2.33;1.80;;;19.40;74.20;;;;;;5071073;28;20025;-70
2021/07/15 00:14:18;;;;;;;2.67;2.03;;;19.40;74.30;;;;;;5070315;28;20028;-70
2021/07/15 00:16:45;;;;;;;6.30;2.17;;;19.40;74.20;;;;;;5073491;28;20029;-70
2021/07/15 00:19:14;;;;;;;7.45;2.63;;;19.40;73.80;;;;;;5076900;28;20069;-70
2021/07/15 00:21:40;;;;;;;5.38;3.15;;;19.40;73.60;;;;;;5061046;28;20115;-70
2021/07/15 00:24:07;;;;;;;4.20;2.30;;;19.30;73.30;;;;;;5063985;28;20173;-69
2021/07/15 00:26:33;;;;;;;7.55;3.10;;;19.30;73.20;;;;;;5084806;28;20023;-69
2021/07/15 00:28:59;;;;;;;4.50;2.88;;;19.30;73.20;;;;;;5076442;28;20043;-69
2021/07/15 00:31:25;;;;;;;3.35;2.70;;;19.20;73.30;;;;;;5074551;28;20036;-70
2021/07/15 00:33:50;;;;;;;8.52;3.45;;;19.20;73.40;;;;;;5059030;28;20024;-69
2021/07/15 00:36:16;;;;;;;2.85;2.55;;;19.20;73.40;;;;;;5071764;28;20035;-70
2021/07/15 00:38:42;;;;;;;5.18;2.80;;;19.10;73.30;;;;;;5073431;28;20104;-70
2021/07/15 00:41:08;;;;;;;2.95;2.45;;;19.10;73.20;;;;;;5073397;28;20017;-69
2021/07/15 00:43:34;;;;;;;7.75;2.75;;;19.00;73.10;;;;;;5067237;28;20111;-70
2021/07/15 00:46:00;;;;;;;4.68;2.50;;;19.00;73.20;;;;;;5073132;28;20112;-69
2021/07/15 00:48:26;;;;;;;5.00;2.92;;;19.00;73.40;;;;;;5073426;28;20090;-69
2021/07/15 00:50:53;;;;;;;3.80;2.70;;;19.00;73.50;;;;;;5071507;28;20094;-70
2021/07/15 00:53:19;;;;;;;4.95;2.78;;;18.90;73.50;;;;;;5059395;28;20474;-69
2021/07/15 00:55:45;;;;;;;5.13;2.53;;;18.90;73.50;;;;;;5073378;28;20028;-70
2021/07/15 00:58:14;;;;;;;4.50;2.50;;;18.90;73.40;;;;;;5065040;28;20059;-70
2021/07/15 01:00:44;;;;;;;5.18;2.45;;;18.90;73.30;;;;;;5072052;28;20028;-70
2021/07/15 01:03:11;;;;;;;12.80;2.35;;;18.80;73.30;;;;;;5070113;28;20029;-69
2021/07/15 01:05:39;;;;;;;3.88;2.40;;;18.80;73.20;;;;;;5065852;28;20028;-69
2021/07/15 01:08:07;;;;;;;5.43;2.10;;;18.70;73.10;;;;;;5073409;28;20027;-69
2021/07/15 01:10:51;;;;;;;2.40;2.20;;;18.70;73.10;;;;;;5072022;28;20081;-69
2021/07/15 01:13:46;;;;;;;2.30;2.00;;;18.70;73.30;;;;;;5073243;28;20016;-69
2021/07/15 01:16:14;;;;;;;5.95;2.78;;;18.60;73.20;;;;;;5072208;28;20024;-70
2021/07/15 01:19:18;;;;;;;3.88;2.45;;;18.60;73.20;;;;;;5067177;28;20425;-70
2021/07/15 01:22:22;;;;;;;2.85;1.70;;;18.60;73.50;;;;;;5056058;28;20454;-70
2021/07/15 01:25:25;;;;;;;3.58;2.42;;;18.50;73.50;;;;;;5073087;28;20028;-69
2021/07/15 01:28:44;;;;;;;6.22;2.60;;;18.50;73.80;;;;;;5060191;28;20021;-69
2021/07/15 01:31:11;;;;;;;3.85;2.10;;;18.50;74.10;;;;;;5049599;28;20087;-69
2021/07/15 01:33:38;;;;;;;8.32;3.00;;;18.50;74.50;;;;;;5054395;28;20044;-70
2021/07/15 01:36:08;;;;;;;3.92;2.10;;;18.50;74.70;;;;;;5050722;28;20499;-70
2021/07/15 01:38:48;;;;;;;2.45;2.10;;;18.60;74.80;;;;;;5048821;28;20441;-70
2021/07/15 01:41:28;;;;;;;2.38;1.98;;;18.60;74.80;;;;;;5049576;28;20490;-69
2021/07/15 01:44:03;;;;;;;4.30;2.50;;;18.60;74.60;;;;;;5049875;28;20029;-70
2021/07/15 01:46:30;;;;;;;5.70;2.45;;;18.60;74.40;;;;;;5053675;28;20415;-69
2021/07/15 01:48:55;;;;;;;4.50;2.30;;;18.60;74.40;;;;;;5067547;28;20128;-70
2021/07/15 01:51:22;;;;;;;4.55;2.17;;;18.60;74.40;;;;;;5073399;28;20123;-70
2021/07/15 01:53:50;;;;;;;2.90;2.17;;;18.70;74.40;;;;;;5037119;28;20032;-70
2021/07/15 01:56:17;;;;;;;5.20;2.13;;;18.70;74.60;;;;;;5036656;28;20457;-70
2021/07/15 01:58:45;;;;;;;4.88;2.50;;;18.70;74.80;;;;;;5065421;28;20441;-70
2021/07/15 02:01:12;;;;;;;3.22;2.15;;;18.70;75.00;;;;;;5074230;28;20037;-70
2021/07/15 02:03:44;;;;;;;6.10;2.72;;;18.80;75.20;;;;;;5069559;28;20024;-70
2021/07/15 02:06:11;;;;;;;3.42;2.40;;;18.80;75.10;;;;;;5055703;28;20032;-70
2021/07/15 02:08:38;;;;;;;2.88;2.10;;;18.90;75.00;;;;;;5055812;28;20486;-70
2021/07/15 02:11:06;;;;;;;3.78;2.50;;;18.90;75.10;;;;;;5055586;28;20108;-70
2021/07/15 02:13:32;;;;;;;4.60;2.30;;;18.90;75.20;;;;;;5055559;28;20445;-70
2021/07/15 02:15:59;;;;;;;6.28;2.72;;;19.00;75.30;;;;;;5055777;28;20033;-70
2021/07/15 02:18:27;;;;;;;4.82;2.30;;;19.00;75.10;;;;;;5065604;28;20056;-70
2021/07/15 02:20:55;;;;;;;5.40;2.83;;;19.10;75.00;;;;;;5075357;28;20382;-70
2021/07/15 02:23:23;;;;;;;3.30;2.88;;;19.10;74.80;;;;;;5075357;28;20013;-70
2021/07/15 02:25:51;;;;;;;3.22;2.92;;;19.20;74.70;;;;;;5074914;28;20028;-69
2021/07/15 02:28:20;;;;;;;2.55;2.35;;;19.20;74.40;;;;;;5057555;28;20029;-69
2021/07/15 02:30:48;;;;;;;2.90;2.60;;;19.20;74.20;;;;;;5061788;28;20071;-69
2021/07/15 02:33:17;;;;;;;6.05;3.25;;;19.20;74.20;;;;;;5053870;28;20116;-69
2021/07/15 02:35:47;;;;;;;6.05;3.60;;;19.20;74.00;;;;;;5054606;28;20497;-70
2021/07/15 02:38:15;;;;;;;6.78;3.95;;;19.20;73.90;;;;;;5053688;28;20064;-69
2021/07/15 02:40:41;;;;;;;8.30;5.05;;;19.20;73.90;;;;;;5054502;28;20125;-69
2021/07/15 02:43:07;;;;;;;11.13;6.65;;;19.30;74.00;;;;;;5054892;28;20486;-69
2021/07/15 02:45:33;;;;;;;13.40;7.25;;;19.30;74.10;;;;;;5054868;28;20033;-69
2021/07/15 02:47:59;;;;;;;13.85;6.72;;;19.30;74.10;;;;;;5054737;28;20036;-70
2021/07/15 02:50:27;;;;;;;16.90;7.78;;;19.30;74.30;;;;;;5054722;28;20045;-70
2021/07/15 02:52:54;;;;;;;18.98;8.38;;;19.30;74.30;;;;;;5053315;28;20032;-69
2021/07/15 02:55:21;;;;;;;27.00;11.27;;;19.30;74.20;;;;;;5054482;28;20413;-69
2021/07/15 02:58:13;;;;;;;19.38;8.88;;;19.40;73.90;;;;;;5053112;28;20417;-69
2021/07/15 03:00:52;;;;;;;30.63;12.80;;;19.40;73.90;;;;;;5054453;28;20037;-70
2021/07/15 03:03:36;;;;;;;32.35;13.93;;;19.50;73.70;;;;;;5053034;28;20037;-69
2021/07/15 03:06:07;;;;;;;;;;;19.40;73.60;;;;;;5054790;28;20383;-70
2021/07/15 03:08:39;;;;;;;28.17;12.73;;;19.50;73.80;;;;;;5054206;28;19912;-69
2021/07/15 03:11:07;;;;;;;39.42;17.02;;;19.50;73.70;;;;;;5054235;28;20118;-69
2021/07/15 03:13:34;;;;;;;37.85;16.52;;;19.50;73.60;;;;;;5054142;28;20528;-69
2021/07/15 03:16:02;;;;;;;43.83;17.38;;;19.50;73.60;;;;;;5054097;28;20393;-69
2021/07/15 03:18:29;;;;;;;40.22;17.90;;;19.60;73.80;;;;;;5052882;28;20471;-69
2021/07/15 03:20:57;;;;;;;60.17;24.38;;;19.60;74.00;;;;;;5052750;28;20112;-69
2021/07/15 03:23:25;;;;;;;40.78;19.10;;;19.60;73.70;;;;;;5053800;28;20082;-69
2021/07/15 03:25:57;;;;;;;41.40;16.98;;;19.60;73.60;;;;;;5053860;28;20021;-69
2021/07/15 03:28:29;;;;;;;39.15;16.58;;;19.60;73.50;;;;;;5054141;28;20025;-69
2021/07/15 03:30:57;;;;;;;35.90;15.25;;;19.70;73.70;;;;;;5053893;28;20391;-69
2021/07/15 03:33:24;;;;;;;33.25;13.48;;;19.70;73.70;;;;;;5061454;28;20437;-69
2021/07/15 03:35:51;;;;;;;39.78;17.60;;;19.70;73.70;;;;;;5053772;28;20025;-69
2021/07/15 03:38:16;;;;;;;50.85;20.60;;;19.70;73.40;;;;;;5053373;28;20043;-69
2021/07/15 03:40:43;;;;;;;86.15;32.05;;;19.70;73.00;;;;;;5053617;28;20352;-69
2021/07/15 03:43:12;;;;;;;71.28;27.65;;;19.70;72.70;;;;;;5052529;28;20383;-69
2021/07/15 03:45:40;;;;;;;90.78;33.53;;;19.80;72.70;;;;;;5053600;28;20016;-69
2021/07/15 03:48:09;;;;;;;81.32;30.83;;;19.70;72.20;;;;;;5053390;28;20552;-69
2021/07/15 03:50:35;;;;;;;48.40;19.70;;;19.70;72.10;;;;;;5053306;28;20436;-69
2021/07/15 03:53:06;;;;;;;40.22;17.60;;;19.70;72.20;;;;;;5053306;28;20029;-69
2021/07/15 03:55:35;;;;;;;32.05;13.90;;;19.70;72.20;;;;;;5052112;28;20025;-69
2021/07/15 03:58:06;;;;;;;34.00;14.95;;;19.70;72.40;;;;;;5053088;28;20174;-69
2021/07/15 04:00:33;;;;;;;34.15;14.65;;;19.70;72.20;;;;;;5053299;28;20139;-69
2021/07/15 04:03:01;;;;;;;42.25;16.95;;;19.70;72.20;;;;;;5053177;28;20024;-70
2021/07/15 04:05:29;;;;;;;26.80;11.68;;;19.70;72.20;;;;;;5053023;28;20082;-69
2021/07/15 04:07:59;;;;;;;24.05;11.35;;;19.60;71.80;;;;;;5052385;28;20017;-70
2021/07/15 04:10:28;;;;;;;20.73;9.82;;;19.60;71.90;;;;;;5052989;28;20108;-70
2021/07/15 04:12:56;;;;;;;25.05;10.35;;;19.60;72.00;;;;;;5053064;28;20031;-69
2021/07/15 04:15:33;;;;;;;25.60;10.30;;;19.60;72.00;;;;;;5051703;28;20064;-70
2021/07/15 04:18:02;;;;;;;28.83;13.50;;;19.60;71.80;;;;;;5052829;28;20041;-70
2021/07/15 04:20:29;;;;;;;27.52;11.57;;;19.60;71.70;;;;;;5052931;28;20430;-70
2021/07/15 04:22:59;;;;;;;33.25;15.13;;;19.60;72.70;;;;;;5052877;28;20101;-70
2021/07/15 04:25:26;;;;;;;36.42;15.23;;;19.60;72.10;;;;;;5052911;28;20506;-70
2021/07/15 04:28:00;;;;;;;41.90;16.65;;;19.70;72.10;;;;;;5052467;28;20027;-70
2021/07/15 04:30:27;;;;;;;34.72;16.25;;;19.70;72.00;;;;;;5052797;28;20482;-70
2021/07/15 04:33:00;;;;;;;42.00;17.25;;;19.70;72.20;;;;;;5070342;28;20032;-70
2021/07/15 04:35:29;;;;;;;46.45;20.77;;;19.70;72.00;;;;;;5052714;28;20036;-70
2021/07/15 04:37:57;;;;;;;49.13;18.63;;;19.80;72.10;;;;;;5051758;28;20483;-70
2021/07/15 04:40:25;;;;;;;50.20;19.17;;;19.80;71.90;;;;;;5052449;28;20033;-70
2021/07/15 04:43:04;;;;;;;44.30;19.40;;;19.80;72.20;;;;;;5052697;28;20032;-70
2021/07/15 04:45:33;;;;;;;46.08;19.83;;;19.90;72.60;;;;;;5052496;28;20052;-70
2021/07/15 04:47:59;;;;;;;52.55;22.15;;;20.00;72.90;;;;;;5052643;28;20471;-70
2021/07/15 04:50:28;;;;;;;57.80;22.65;;;20.00;72.90;;;;;;5052071;28;20045;-71
2021/07/15 04:53:14;;;;;;;53.55;21.83;;;20.10;72.70;;;;;;5052824;28;20116;-70
2021/07/15 04:55:40;;;;;;;54.78;24.02;;;20.20;72.80;;;;;;5052534;28;20378;-69
2021/07/15 04:58:07;;;;;;;64.35;25.90;;;20.30;72.90;;;;;;5052912;28;20087;-71
2021/07/15 05:00:33;;;;;;;58.50;24.67;;;20.40;72.30;;;;;;5053224;28;20017;-71
2021/07/15 05:03:01;;;;;;;68.20;27.55;;;20.40;72.30;;;;;;5053199;28;20030;-68
2021/07/15 05:05:27;;;;;;;53.58;21.48;;;20.50;71.90;;;;;;5053049;28;20382;-70
2021/07/15 05:07:52;;;;;;;47.65;19.13;;;20.50;70.90;;;;;;5052947;28;20025;-69
2021/07/15 05:10:18;;;;;;;62.60;24.48;;;20.50;70.30;;;;;;5052733;28;20029;-69
2021/07/15 05:12:44;;;;;;;63.33;24.27;;;20.60;69.90;;;;;;5052906;28;20066;-70
2021/07/15 05:15:11;;;;;;;45.50;20.35;;;20.60;70.20;;;;;;5051218;28;20078;-70
2021/07/15 05:17:38;;;;;;;47.33;20.58;;;20.60;69.80;;;;;;5052860;28;20099;-69
2021/07/15 05:20:07;;;;;;;43.55;19.50;;;20.60;69.80;;;;;;5050792;28;20509;-70
2021/07/15 05:22:34;;;;;;;46.90;19.75;;;20.60;70.60;;;;;;5052884;28;20028;-70
2021/07/15 05:24:59;;;;;;;39.40;18.17;;;20.60;70.60;;;;;;5052474;28;20543;-70
2021/07/15 05:27:25;;;;;;;43.67;17.83;;;20.70;69.90;;;;;;5052636;28;20097;-70
2021/07/15 05:29:51;;;;;;;50.22;17.23;;;20.70;69.70;;;;;;5052711;28;20378;-70
2021/07/15 05:32:17;;;;;;;40.22;18.70;;;20.80;69.60;;;;;;5052799;28;20035;-69
2021/07/15 05:34:43;;;;;;;34.60;17.00;;;20.90;69.40;;;;;;5052635;28;20040;-70
2021/07/15 05:37:08;;;;;;;32.03;15.30;;;20.90;69.60;;;;;;5055651;28;20032;-69
2021/07/15 05:39:36;;;;;;;32.10;14.40;;;21.00;70.10;;;;;;5052414;28;20032;-70
2021/07/15 05:42:02;;;;;;;29.20;13.07;;;21.10;70.50;;;;;;5052517;28;20440;-70
2021/07/15 05:44:27;;;;;;;26.80;12.52;;;21.20;70.40;;;;;;5052489;28;20048;-70
2021/07/15 05:46:53;;;;;;;28.35;12.35;;;21.40;69.80;;;;;;5052349;28;20067;-70
2021/07/15 05:49:19;;;;;;;26.17;12.98;;;21.50;69.90;;;;;;5050614;28;20078;-70
2021/07/15 05:51:46;;;;;;;31.33;13.10;;;21.50;68.90;;;;;;5052117;28;20454;-70
2021/07/15 05:54:16;;;;;;;23.77;11.90;;;21.60;67.90;;;;;;5052415;28;20544;-70
2021/07/15 05:56:42;;;;;;;23.77;10.73;;;21.70;67.70;;;;;;5052274;28;20036;-70
2021/07/15 05:59:07;;;;;;;26.38;12.25;;;21.70;68.00;;;;;;5050878;28;20025;-70
2021/07/15 06:01:34;;;;;;;24.75;11.02;;;21.80;67.10;;;;;;5062623;28;20021;-70
2021/07/15 06:03:59;;;;;;;20.90;10.23;;;21.80;67.20;;;;;;5065379;28;20013;-70
2021/07/15 06:06:25;;;;;;;18.23;9.70;;;21.90;68.20;;;;;;5066286;28;20028;-70
2021/07/15 06:08:53;;;;;;;22.05;9.65;;;22.00;68.50;;;;;;5063024;28;20025;-70
2021/07/15 06:11:19;;;;;;;16.83;8.57;;;22.00;68.20;;;;;;5052080;28;20387;-70
2021/07/15 06:13:48;;;;;;;25.52;9.00;;;22.10;67.60;;;;;;5052441;28;20128;-69
2021/07/15 06:16:13;;;;;;;17.88;8.85;;;22.20;67.10;;;;;;5052501;28;20033;-70
2021/07/15 06:18:39;;;;;;;17.75;9.18;;;22.30;67.00;;;;;;5052301;28;20025;-70
2021/07/15 06:21:05;;;;;;;25.55;9.90;;;22.30;66.30;;;;;;5051177;28;20017;-70
2021/07/15 06:23:34;;;;;;;17.38;8.13;;;22.30;65.10;;;;;;5051249;28;20115;-70
2021/07/15 06:26:00;;;;;;;17.77;8.20;;;22.30;65.70;;;;;;5052221;28;20028;-70
2021/07/15 06:28:27;;;;;;;19.25;9.30;;;22.20;65.60;;;;;;5051037;28;20037;-69
2021/07/15 06:30:53;;;;;;;18.25;8.07;;;22.20;64.70;;;;;;5054109;28;20478;-69
2021/07/15 06:33:19;;;;;;;14.63;6.95;;;22.10;63.80;;;;;;5076250;28;20039;-70
2021/07/15 06:35:49;;;;;;;14.40;6.65;;;22.00;63.70;;;;;;5054310;28;20037;-70
2021/07/15 06:38:15;;;;;;;10.52;5.90;;;22.00;63.20;;;;;;5053785;28;20028;-70
2021/07/15 06:40:45;;;;;;;12.75;5.38;;;21.90;63.50;;;;;;5054950;28;20429;-70
2021/07/15 06:43:11;;;;;;;10.00;5.80;;;21.80;63.60;;;;;;5054489;28;20025;-70
2021/07/15 06:45:36;;;;;;;10.75;4.75;;;21.70;64.30;;;;;;5055795;28;20072;-70
2021/07/15 06:48:02;;;;;;;9.52;5.25;;;21.70;64.20;;;;;;5055653;28;20021;-70
2021/07/15 06:50:28;;;;;;;8.90;4.63;;;21.70;64.70;;;;;;5067674;28;20048;-70
2021/07/15 06:52:54;;;;;;;10.10;4.55;;;21.60;65.60;;;;;;5056504;28;20441;-69
2021/07/15 06:55:20;;;;;;;11.15;5.25;;;21.70;65.50;;;;;;5055548;28;20048;-69
2021/07/15 06:57:47;;;;;;;11.05;4.40;;;21.60;64.60;;;;;;5055296;28;20081;-69
2021/07/15 07:00:16;;;;;;;10.18;5.43;;;21.60;65.30;;;;;;5064921;28;20025;-69
2021/07/15 07:02:44;;;;;;;9.27;4.78;;;21.60;65.10;;;;;;5074384;28;20495;-70
2021/07/15 07:05:10;;;;;;;7.43;4.00;;;21.60;65.10;;;;;;5073905;28;20382;-70
2021/07/15 07:07:37;;;;;;;8.90;3.72;;;21.60;63.90;;;;;;5075368;28;20030;-71
2021/07/15 07:10:08;;;;;;;11.32;4.30;;;21.50;64.00;;;;;;5067667;28;20036;-71
2021/07/15 07:12:35;;;;;;;8.38;3.63;;;21.50;64.50;;;;;;5055189;28;20029;-71
2021/07/15 07:15:00;;;;;;;7.13;3.88;;;21.50;64.20;;;;;;5063747;28;20113;-71
2021/07/15 07:17:26;;;;;;;6.95;3.08;;;21.50;63.80;;;;;;5055336;28;20082;-71
2021/07/15 07:19:52;;;;;;;5.30;3.10;;;21.50;63.60;;;;;;5054951;28;20031;-72
2021/07/15 07:22:18;;;;;;;7.88;3.83;;;21.50;64.80;;;;;;5055051;28;20437;-71
2021/07/15 07:24:43;;;;;;;6.68;3.75;;;21.60;65.30;;;;;;5054804;28;20021;-71
2021/07/15 07:27:09;;;;;;;7.25;2.80;;;21.60;63.50;;;;;;5054923;28;20088;-71
2021/07/15 07:29:35;;;;;;;7.43;2.67;;;21.60;64.60;;;;;;5054860;28;20382;-71
2021/07/15 07:32:01;;;;;;;4.57;2.67;;;21.70;64.10;;;;;;5053213;28;20107;-71
2021/07/15 07:34:26;;;;;;;3.90;2.60;;;21.70;63.50;;;;;;5061041;28;20120;-71
2021/07/15 07:36:52;;;;;;;4.97;2.67;;;21.70;63.50;;;;;;5054523;28;20078;-71
2021/07/15 07:39:18;;;;;;;5.25;2.85;;;21.70;64.30;;;;;;5069304;28;20367;-70
2021/07/15 07:41:44;;;;;;;5.70;3.10;;;21.80;64.10;;;;;;5065956;28;20026;-70
2021/07/15 07:44:10;;;;;;;3.65;2.17;;;21.90;63.10;;;;;;5054388;28;20037;-69
2021/07/15 07:46:36;;;;;;;4.25;2.25;;;21.90;63.00;;;;;;5053105;28;20428;-70
2021/07/15 07:49:02;;;;;;;4.82;2.22;;;21.90;62.30;;;;;;5053116;28;20021;-70
2021/07/15 07:51:30;;;;;;;2.63;1.60;;;21.90;62.30;;;;;;5053915;28;20126;-69
2021/07/15 07:53:56;;;;;;;1.98;1.52;;;21.90;61.40;;;;;;5054231;28;20175;-70
2021/07/15 07:56:22;;;;;;;2.58;1.35;;;21.90;60.40;;;;;;5054709;28;20352;-70
2021/07/15 07:58:48;;;;;;;1.75;1.48;;;21.90;61.40;;;;;;5052820;28;20029;-70
2021/07/15 08:01:14;;;;;;;2.53;1.67;;;21.90;61.70;;;;;;5053012;28;20024;-70
2021/07/15 08:03:40;;;;;;;2.13;1.20;;;22.00;60.60;;;;;;5054005;28;20019;-70
2021/07/15 08:06:06;;;;;;;4.05;1.50;;;22.00;60.90;;;;;;5054153;28;20025;-69
2021/07/15 08:08:34;;;;;;;2.78;1.45;;;22.00;60.10;;;;;;5057148;28;20021;-70
2021/07/15 08:11:00;;;;;;;1.88;1.10;;;22.00;60.40;;;;;;5072389;28;20497;-70
2021/07/15 08:13:26;;;;;;;2.55;1.15;;;22.10;61.20;;;;;;5074001;28;20025;-70
2021/07/15 08:15:52;;;;;;;2.33;1.02;;;22.20;61.40;;;;;;5073944;28;20020;-70
2021/07/15 08:18:18;;;;;;;1.98;1.00;;;22.20;58.90;;;;;;5073783;28;20025;-71
2021/07/15 08:20:44;;;;;;;2.17;1.20;;;22.20;59.00;;;;;;5073738;28;20017;-71
2021/07/15 08:23:10;;;;;;;3.63;1.25;;;22.20;59.10;;;;;;5073435;28;20016;-71
2021/07/15 08:25:36;;;;;;;1.80;1.30;;;22.30;59.10;;;;;;5073481;28;20481;-71
2021/07/15 08:28:02;;;;;;;1.63;1.17;;;22.30;59.50;;;;;;5073564;28;20531;-71
2021/07/15 08:30:28;;;;;;;4.60;1.80;;;22.30;59.60;;;;;;5073659;28;20017;-71
2021/07/15 08:32:54;;;;;;;5.97;1.40;;;22.40;59.00;;;;;;5072177;28;20028;-71
2021/07/15 08:35:19;;;;;;;2.15;1.50;;;22.40;59.40;;;;;;5073439;28;20504;-72
2021/07/15 08:37:45;;;;;;;1.80;1.38;;;22.40;59.70;;;;;;5073025;28;20381;-72
2021/07/15 08:40:11;;;;;;;3.65;1.90;;;22.50;58.50;;;;;;5055069;28;20025;-72
2021/07/15 08:42:39;;;;;;;2.33;2.03;;;22.50;58.90;;;;;;5053282;28;20363;-71
2021/07/15 08:45:09;;;;;;;2.33;1.80;;;22.60;58.80;;;;;;5053112;28;20029;-71
2021/07/15 08:47:40;;;;;;;5.20;1.83;;;22.70;59.80;;;;;;5053250;28;20032;-71
2021/07/15 08:50:08;;;;;;;1.70;1.58;;;22.80;59.30;;;;;;5052944;28;20136;-71
2021/07/15 08:52:35;;;;;;;2.15;1.30;;;22.90;58.80;;;;;;5053253;28;20386;-72
2021/07/15 08:57:49;;;;;;;2.38;1.70;;;23.00;57.70;;;;;;5061626;28;20036;-71
2021/07/15 09:00:17;;;;;;;2.90;1.70;;;23.10;58.40;;;;;;5052921;28;20027;-71
2021/07/15 09:02:44;;;;;;;2.05;1.60;;;23.10;57.80;;;;;;5053058;28;20092;-71
2021/07/15 09:05:12;;;;;;;3.22;1.60;;;23.20;58.60;;;;;;5052929;28;20490;-72
2021/07/15 09:07:40;;;;;;;1.90;1.40;;;23.30;57.70;;;;;;5052661;28;20048;-72
2021/07/15 09:10:06;;;;;;;1.77;1.38;;;23.50;58.60;;;;;;5052752;28;20031;-71
2021/07/15 09:12:35;;;;;;;1.20;1.10;;;23.50;57.80;;;;;;5052854;28;20037;-71
2021/07/15 09:15:06;;;;;;;3.67;1.50;;;23.70;58.30;;;;;;5051870;28;20372;-72
2021/07/15 09:17:38;;;;;;;1.40;1.30;;;23.90;57.30;;;;;;5051418;28;20540;-72
2021/07/15 09:20:19;;;;;;;2.13;1.52;;;24.10;57.90;;;;;;5052848;28;20083;-71
2021/07/15 09:23:03;;;;;;;4.05;1.63;;;24.30;57.80;;;;;;5052949;28;20119;-71
2021/07/15 09:25:49;;;;;;;2.67;1.70;;;24.60;57.80;;;;;;5052980;28;20029;-72
2021/07/15 09:28:19;;;;;;;2.15;1.40;;;24.70;55.50;;;;;;5051379;28;20027;-72
2021/07/15 09:30:45;;;;;;;1.95;1.70;;;24.90;55.00;;;;;;5052666;28;20021;-72
2021/07/15 09:33:14;;;;;;;2.15;1.88;;;25.00;54.80;;;;;;5052720;28;20107;-72
2021/07/15 09:35:48;;;;;;;4.00;2.20;;;25.10;55.70;;;;;;5052663;28;20099;-72
2021/07/15 09:38:19;;;;;;;1.77;1.42;;;25.20;54.00;;;;;;5053181;28;20043;-72
2021/07/15 09:41:01;;;;;;;3.03;1.98;;;25.30;55.30;;;;;;5071742;28;20024;-72
2021/07/15 09:43:38;;;;;;;1.98;1.45;;;25.50;54.40;;;;;;5072138;28;20032;-72
2021/07/15 09:46:13;;;;;;;2.47;1.52;;;25.60;52.90;;;;;;5072559;28;20024;-72
2021/07/15 09:48:43;;;;;;;7.55;4.93;;;25.80;54.20;;;;;;5072519;28;20439;-72
2021/07/15 09:51:11;;;;;;;3.45;1.80;;;26.00;53.80;;;;;;5071125;28;20498;-72
2021/07/15 09:53:37;;;;;;;2.83;1.83;;;26.20;55.30;;;;;;5072352;28;20486;-72
2021/07/15 09:56:16;;;;;;;2.28;1.50;;;26.30;52.80;;;;;;5070614;28;20039;-73
2021/07/15 09:58:47;;;;;;;1.88;1.02;;;26.40;51.70;;;;;;5062516;28;20056;-72
2021/07/15 10:01:21;;;;;;;1.30;1.20;;;26.40;52.10;;;;;;5052378;28;20104;-72
2021/07/15 10:03:48;;;;;;;;;;;26.40;50.80;;;;;;5052401;28;20029;-73
2021/07/15 10:06:15;;;;;;;2.50;1.50;;;26.40;52.60;;;;;;5054593;28;19911;-72
2021/07/15 10:08:43;;;;;;;3.15;1.60;;;26.30;49.80;;;;;;5057178;28;20028;-72
2021/07/15 10:11:26;;;;;;;1.75;1.63;;;26.30;49.50;;;;;;5057068;28;20032;-73
2021/07/15 10:14:04;;;;;;;1.95;1.30;;;26.20;49.40;;;;;;5074106;28;20020;-72
2021/07/15 10:16:32;;;;;;;1.60;1.50;;;26.20;49.10;;;;;;5076434;28;20020;-72
2021/07/15 10:18:58;;;;;;;3.92;1.85;;;26.10;48.80;;;;;;5076264;28;20024;-72
2021/07/15 10:21:27;;;;;;;2.63;1.85;;;26.10;47.80;;;;;;5072884;28;20366;-72
2021/07/15 10:23:54;;;;;;;2.13;1.80;;;26.10;49.70;;;;;;5076025;28;20100;-72
2021/07/15 10:26:20;;;;;;;2.67;1.70;;;26.10;49.80;;;;;;5058236;28;20064;-72
2021/07/15 10:28:49;;;;;;;1.90;1.45;;;26.10;48.90;;;;;;5071817;28;20032;-72
2021/07/15 10:31:16;;;;;;;2.35;1.63;;;26.10;49.20;;;;;;5055172;28;20048;-72
2021/07/15 10:33:43;;;;;;;2.40;1.48;;;26.10;49.30;;;;;;5062104;28;20028;-72
2021/07/15 10:36:10;;;;;;;4.07;1.90;;;26.10;50.20;;;;;;5074652;28;20024;-72
2021/07/15 10:38:39;;;;;;;3.05;1.80;;;26.10;49.30;;;;;;5069001;28;20024;-72
2021/07/15 10:41:06;;;;;;;1.80;1.70;;;26.10;50.00;;;;;;5064573;28;20074;-72
2021/07/15 10:43:32;;;;;;;3.63;2.00;;;26.10;49.10;;;;;;5065555;28;20135;-72
2021/07/15 10:46:01;;;;;;;6.28;2.08;;;26.10;49.60;;;;;;5064138;28;20035;-72
2021/07/15 10:48:28;;;;;;;2.67;1.70;;;26.20;49.80;;;;;;5075291;28;20024;-72
2021/07/15 10:50:54;;;;;;;2.28;1.80;;;26.10;49.80;;;;;;5075007;28;20113;-72
2021/07/15 10:53:21;;;;;;;2.65;1.55;;;26.20;49.10;;;;;;5063307;28;20482;-72
2021/07/15 10:55:47;;;;;;;3.13;2.13;;;26.30;49.30;;;;;;5058804;28;20037;-72
2021/07/15 10:58:13;;;;;;;2.35;1.58;;;26.30;48.60;;;;;;5073655;28;20103;-72
2021/07/15 11:00:51;;;;;;;2.22;2.03;;;26.40;49.20;;;;;;5071826;28;20390;-72
2021/07/15 11:03:25;;;;;;;2.97;1.42;;;26.40;48.80;;;;;;5062776;28;20423;-72
2021/07/15 11:05:54;;;;;;;2.35;1.77;;;26.60;49.50;;;;;;5062016;28;20032;-72
2021/07/15 11:08:48;;;;;;;1.60;1.50;;;26.70;49.20;;;;;;5070401;28;20564;-72
2021/07/15 11:11:14;;;;;;;1.95;1.40;;;26.90;51.00;;;;;;5054982;28;20103;-72
2021/07/15 11:13:42;;;;;;;2.38;1.45;;;27.00;48.60;;;;;;5065055;28;20032;-72
2021/07/15 11:16:08;;;;;;;1.90;1.70;;;27.10;47.60;;;;;;5069680;28;20539;-72
2021/07/15 11:18:41;;;;;;;1.95;1.30;;;27.20;46.80;;;;;;5062531;28;20032;-73
2021/07/15 11:21:27;;;;;;;8.88;1.55;;;27.30;45.70;;;;;;5069489;28;20025;-72
2021/07/15 11:24:05;;;;;;;1.48;1.38;;;27.40;46.00;;;;;;5070597;28;20013;-73
2021/07/15 11:26:41;;;;;;;3.08;1.40;;;27.50;47.50;;;;;;5053542;28;20025;-72
2021/07/15 11:29:07;;;;;;;1.52;1.17;;;27.60;46.60;;;;;;5054718;28;20044;-73
2021/07/15 11:31:40;;;;;;;1.63;1.33;;;27.80;47.60;;;;;;5054609;28;20025;-73
2021/07/15 11:34:06;;;;;;;1.40;1.25;;;27.90;45.80;;;;;;5054504;28;20036;-73
2021/07/15 11:36:32;;;;;;;1.83;1.00;;;28.00;44.80;;;;;;5054787;28;20028;-73
2021/07/15 11:39:06;;;;;;;1.35;1.20;;;28.10;45.60;;;;;;5054724;28;20086;-72
2021/07/15 11:41:46;;;;;;;3.33;1.40;;;28.30;47.10;;;;;;5054650;28;20559;-72
2021/07/15 11:44:13;;;;;;;3.60;1.25;;;28.40;44.40;;;;;;5074894;28;20551;-72
2021/07/15 11:46:40;;;;;;;1.50;1.00;;;28.60;43.80;;;;;;5067985;28;20021;-73
2021/07/15 11:49:10;;;;;;;1.95;1.20;;;28.70;46.30;;;;;;5066494;28;20035;-73
2021/07/15 11:51:45;;;;;;;1.08;1.00;;;28.90;46.60;;;;;;5062349;28;20048;-73
2021/07/15 11:54:30;;;;;;;1.45;0.90;;;29.00;43.00;;;;;;5056566;28;20035;-73
2021/07/15 11:57:14;;;;;;;1.00;0.90;;;29.10;44.90;;;;;;5065958;28;20056;-73
2021/07/15 11:59:46;;;;;;;;;;;29.30;44.00;;;;;;5054886;28;20025;-73
2021/07/15 12:02:39;;;;;;;8.05;1.08;;;29.40;46.10;;;;;;5055210;28;19909;-73
2021/07/15 12:05:19;;;;;;;0.70;0.70;;;29.50;45.10;;;;;;5052973;28;20424;-73
2021/07/15 12:08:04;;;;;;;2.13;0.80;;;29.60;45.00;;;;;;5054211;28;20071;-73
2021/07/15 12:10:35;;;;;;;2.05;0.85;;;29.70;43.70;;;;;;5074368;28;20020;-74
2021/07/15 12:13:01;;;;;;;1.17;1.08;;;29.70;42.40;;;;;;5074000;28;20028;-73
2021/07/15 12:15:28;;;;;;;1.50;0.95;;;29.80;42.70;;;;;;5074058;28;20381;-73
2021/07/15 12:18:00;;;;;;;1.23;1.00;;;29.80;41.70;;;;;;5072553;28;20060;-73
2021/07/15 12:20:41;;;;;;;0.80;0.80;;;29.90;41.90;;;;;;5073930;28;20025;-73
2021/07/15 12:23:12;;;;;;;1.48;1.17;;;29.80;41.10;;;;;;5073613;28;20497;-73
2021/07/15 12:25:38;;;;;;;1.25;0.80;;;29.80;40.00;;;;;;5073710;28;20021;-73
2021/07/15 12:28:07;;;;;;;0.95;0.80;;;29.80;43.00;;;;;;5073288;28;20097;-73
2021/07/15 12:30:41;;;;;;;0.90;0.80;;;29.80;43.00;;;;;;5073555;28;20020;-73
2021/07/15 12:33:07;;;;;;;1.15;1.05;;;29.90;40.80;;;;;;5072283;28;20472;-74
2021/07/15 12:35:35;;;;;;;2.30;1.30;;;29.90;41.40;;;;;;5080145;28;20024;-75
2021/07/15 12:38:24;;;;;;;1.00;0.90;;;30.00;40.00;;;;;;5092961;28;20031;-75
2021/07/15 12:41:04;;;;;;;2.50;1.05;;;30.00;42.70;;;;;;5052650;28;20017;-75
2021/07/15 12:43:42;;;;;;;1.67;1.10;;;30.10;39.90;;;;;;5053378;28;20021;-74
2021/07/15 12:46:21;;;;;;;4.43;1.10;;;30.10;39.60;;;;;;5053421;28;20154;-75
2021/07/15 12:48:50;;;;;;;4.15;1.55;;;30.20;41.70;;;;;;5053400;28;20025;-75
2021/07/15 12:51:19;;;;;;;2.85;1.02;;;30.30;40.80;;;;;;5053199;28;20044;-75
2021/07/15 12:53:48;;;;;;;1.02;0.90;;;30.40;39.80;;;;;;5053292;28;20025;-75
2021/07/15 12:56:21;;;;;;;2.15;1.10;;;30.50;39.70;;;;;;5053185;28;20095;-75
2021/07/15 12:59:09;;;;;;;1.00;0.90;;;30.50;40.60;;;;;;5053132;28;20025;-75